sensor_id;sensor_type;location;lat;lon;timestamp;pressure;altitude;pressure_sealevel;temperature
24278;BMP280;12394;42.692;23.314;2023-07-13T00:01:39;95263.69;;;23.59
24278;BMP280;12394;42.692;23.314;2023-07-13T00:04:04;95250.16;;;23.48
24278;BMP280;12394;42.692;23.314;2023-07-13T00:06:30;95255.22;;;23.46
24278;BMP280;12394;42.692;23.314;2023-07-13T00:08:58;95271.34;;;23.52
24278;BMP280;12394;42.692;23.314;2023-07-13T00:11:24;95266.91;;;23.48
24278;BMP280;12394;42.692;23.314;2023-07-13T00:13:50;95257.03;;;23.40
24278;BMP280;12394;42.692;23.314;2023-07-13T00:16:16;95256.41;;;23.45
24278;BMP280;12394;42.692;23.314;2023-07-13T00:18:41;95261.91;;;23.41
24278;BMP280;12394;42.692;23.314;2023-07-13T00:21:07;95251.78;;;23.31
24278;BMP280;12394;42.692;23.314;2023-07-13T00:23:34;95266.16;;;23.33
24278;BMP280;12394;42.692;23.314;2023-07-13T00:26:02;95258.34;;;23.30
24278;BMP280;12394;42.692;23.314;2023-07-13T00:28:28;95259.53;;;23.29
24278;BMP280;12394;42.692;23.314;2023-07-13T00:30:53;95249.78;;;23.26
24278;BMP280;12394;42.692;23.314;2023-07-13T00:33:19;95256.03;;;23.23
24278;BMP280;12394;42.692;23.314;2023-07-13T00:35:45;95245.72;;;23.16
24278;BMP280;12394;42.692;23.314;2023-07-13T00:38:10;95247.00;;;23.20
24278;BMP280;12394;42.692;23.314;2023-07-13T00:40:36;95248.66;;;23.18
24278;BMP280;12394;42.692;23.314;2023-07-13T00:43:01;95225.84;;;23.02
24278;BMP280;12394;42.692;23.314;2023-07-13T00:47:54;95256.94;;;23.05
24278;BMP280;12394;42.692;23.314;2023-07-13T00:50:21;95243.50;;;22.99
24278;BMP280;12394;42.692;23.314;2023-07-13T00:52:50;95244.59;;;22.93
24278;BMP280;12394;42.692;23.314;2023-07-13T00:55:17;95248.28;;;22.95
24278;BMP280;12394;42.692;23.314;2023-07-13T00:57:44;95227.88;;;22.69
24278;BMP280;12394;42.692;23.314;2023-07-13T01:00:10;95243.94;;;22.83
24278;BMP280;12394;42.692;23.314;2023-07-13T01:02:42;95239.78;;;22.82
24278;BMP280;12394;42.692;23.314;2023-07-13T01:05:14;95250.09;;;22.75
24278;BMP280;12394;42.692;23.314;2023-07-13T01:07:41;95234.53;;;22.73
24278;BMP280;12394;42.692;23.314;2023-07-13T01:10:09;95247.69;;;22.77
24278;BMP280;12394;42.692;23.314;2023-07-13T01:12:35;95240.06;;;22.70
24278;BMP280;12394;42.692;23.314;2023-07-13T01:15:01;95198.66;;;22.36
24278;BMP280;12394;42.692;23.314;2023-07-13T01:17:28;95243.31;;;22.65
24278;BMP280;12394;42.692;23.314;2023-07-13T01:19:54;95235.50;;;22.61
24278;BMP280;12394;42.692;23.314;2023-07-13T01:22:20;95205.47;;;22.37
24278;BMP280;12394;42.692;23.314;2023-07-13T01:24:52;95234.38;;;22.53
24278;BMP280;12394;42.692;23.314;2023-07-13T01:27:22;95212.28;;;22.38
24278;BMP280;12394;42.692;23.314;2023-07-13T01:29:50;95224.69;;;22.41
24278;BMP280;12394;42.692;23.314;2023-07-13T01:32:20;95202.59;;;22.26
24278;BMP280;12394;42.692;23.314;2023-07-13T01:34:48;95227.09;;;22.39
24278;BMP280;12394;42.692;23.314;2023-07-13T01:37:13;95230.50;;;22.39
24278;BMP280;12394;42.692;23.314;2023-07-13T01:39:39;95241.31;;;22.36
24278;BMP280;12394;42.692;23.314;2023-07-13T01:42:05;95237.81;;;22.30
24278;BMP280;12394;42.692;23.314;2023-07-13T01:44:31;95222.63;;;22.21
24278;BMP280;12394;42.692;23.314;2023-07-13T01:46:56;95228.94;;;22.24
24278;BMP280;12394;42.692;23.314;2023-07-13T01:49:21;95235.47;;;22.23
24278;BMP280;12394;42.692;23.314;2023-07-13T01:51:47;95234.28;;;22.24
24278;BMP280;12394;42.692;23.314;2023-07-13T01:54:12;95188.84;;;21.94
24278;BMP280;12394;42.692;23.314;2023-07-13T01:56:38;95237.41;;;22.22
24278;BMP280;12394;42.692;23.314;2023-07-13T01:59:04;95232.97;;;22.19
24278;BMP280;12394;42.692;23.314;2023-07-13T02:01:30;95232.25;;;22.18
24278;BMP280;12394;42.692;23.314;2023-07-13T02:03:55;95241.41;;;22.17
24278;BMP280;12394;42.692;23.314;2023-07-13T02:06:21;95248.22;;;22.18
24278;BMP280;12394;42.692;23.314;2023-07-13T02:08:46;95237.75;;;22.15
24278;BMP280;12394;42.692;23.314;2023-07-13T02:11:12;95244.09;;;22.17
24278;BMP280;12394;42.692;23.314;2023-07-13T02:13:37;95246.00;;;22.17
24278;BMP280;12394;42.692;23.314;2023-07-13T02:16:03;95247.97;;;22.16
24278;BMP280;12394;42.692;23.314;2023-07-13T02:18:28;95242.78;;;22.13
24278;BMP280;12394;42.692;23.314;2023-07-13T02:20:54;95244.38;;;22.20
24278;BMP280;12394;42.692;23.314;2023-07-13T02:23:19;95245.00;;;22.14
24278;BMP280;12394;42.692;23.314;2023-07-13T02:25:45;95249.88;;;22.16
24278;BMP280;12394;42.692;23.314;2023-07-13T02:28:11;95254.47;;;22.15
24278;BMP280;12394;42.692;23.314;2023-07-13T02:30:36;95264.41;;;22.15
24278;BMP280;12394;42.692;23.314;2023-07-13T02:33:01;95261.44;;;22.13
24278;BMP280;12394;42.692;23.314;2023-07-13T02:35:27;95210.94;;;21.86
24278;BMP280;12394;42.692;23.314;2023-07-13T02:37:53;95248.28;;;22.09
24278;BMP280;12394;42.692;23.314;2023-07-13T02:40:18;95257.19;;;22.06
24278;BMP280;12394;42.692;23.314;2023-07-13T02:42:44;95252.03;;;22.03
24278;BMP280;12394;42.692;23.314;2023-07-13T02:45:09;95240.22;;;21.95
24278;BMP280;12394;42.692;23.314;2023-07-13T02:47:36;95250.56;;;22.02
24278;BMP280;12394;42.692;23.314;2023-07-13T02:50:02;95250.81;;;22.04
24278;BMP280;12394;42.692;23.314;2023-07-13T02:52:27;95247.59;;;22.00
24278;BMP280;12394;42.692;23.314;2023-07-13T02:54:53;95261.22;;;22.02
24278;BMP280;12394;42.692;23.314;2023-07-13T02:57:18;95242.28;;;21.91
24278;BMP280;12394;42.692;23.314;2023-07-13T02:59:44;95254.75;;;21.94
24278;BMP280;12394;42.692;23.314;2023-07-13T03:02:09;95253.41;;;21.89
24278;BMP280;12394;42.692;23.314;2023-07-13T03:04:36;95255.16;;;21.92
24278;BMP280;12394;42.692;23.314;2023-07-13T03:07:01;95260.94;;;21.91
24278;BMP280;12394;42.692;23.314;2023-07-13T03:09:27;95264.78;;;21.90
24278;BMP280;12394;42.692;23.314;2023-07-13T03:11:54;95263.16;;;21.92
24278;BMP280;12394;42.692;23.314;2023-07-13T03:14:20;95255.94;;;21.84
24278;BMP280;12394;42.692;23.314;2023-07-13T03:16:45;95272.31;;;21.91
24278;BMP280;12394;42.692;23.314;2023-07-13T03:19:11;95257.81;;;21.92
24278;BMP280;12394;42.692;23.314;2023-07-13T03:21:36;95261.66;;;21.91
24278;BMP280;12394;42.692;23.314;2023-07-13T03:24:02;95268.91;;;21.91
24278;BMP280;12394;42.692;23.314;2023-07-13T03:26:27;95264.06;;;21.89
24278;BMP280;12394;42.692;23.314;2023-07-13T03:28:53;95255.19;;;21.83
24278;BMP280;12394;42.692;23.314;2023-07-13T03:31:22;95272.94;;;21.86
24278;BMP280;12394;42.692;23.314;2023-07-13T03:33:48;95270.56;;;21.88
24278;BMP280;12394;42.692;23.314;2023-07-13T03:36:20;95266.28;;;21.82
24278;BMP280;12394;42.692;23.314;2023-07-13T03:38:47;95269.38;;;21.89
24278;BMP280;12394;42.692;23.314;2023-07-13T03:41:14;95279.56;;;21.91
24278;BMP280;12394;42.692;23.314;2023-07-13T03:43:39;95277.97;;;21.93
24278;BMP280;12394;42.692;23.314;2023-07-13T03:46:05;95277.66;;;21.91
24278;BMP280;12394;42.692;23.314;2023-07-13T03:48:30;95278.72;;;21.94
24278;BMP280;12394;42.692;23.314;2023-07-13T03:50:55;95277.63;;;22.00
24278;BMP280;12394;42.692;23.314;2023-07-13T03:53:21;95268.72;;;22.03
24278;BMP280;12394;42.692;23.314;2023-07-13T03:55:46;95273.44;;;22.08
24278;BMP280;12394;42.692;23.314;2023-07-13T03:58:28;95271.66;;;22.14
24278;BMP280;12394;42.692;23.314;2023-07-13T04:00:55;95271.03;;;22.20
24278;BMP280;12394;42.692;23.314;2023-07-13T04:03:20;95274.56;;;22.26
24278;BMP280;12394;42.692;23.314;2023-07-13T04:05:46;95268.88;;;22.33
24278;BMP280;12394;42.692;23.314;2023-07-13T04:08:12;95271.84;;;22.35
24278;BMP280;12394;42.692;23.314;2023-07-13T04:10:38;95265.16;;;22.39
24278;BMP280;12394;42.692;23.314;2023-07-13T04:13:04;95260.81;;;22.42
24278;BMP280;12394;42.692;23.314;2023-07-13T04:15:31;95245.84;;;22.44
24278;BMP280;12394;42.692;23.314;2023-07-13T04:17:57;95261.63;;;22.57
24278;BMP280;12394;42.692;23.314;2023-07-13T04:20:22;95274.56;;;22.73
24278;BMP280;12394;42.692;23.314;2023-07-13T04:22:49;95274.78;;;22.84
24278;BMP280;12394;42.692;23.314;2023-07-13T04:25:15;95286.28;;;22.90
24278;BMP280;12394;42.692;23.314;2023-07-13T04:27:40;95285.63;;;22.95
24278;BMP280;12394;42.692;23.314;2023-07-13T04:30:06;95263.06;;;22.82
24278;BMP280;12394;42.692;23.314;2023-07-13T04:32:32;95291.19;;;23.07
24278;BMP280;12394;42.692;23.314;2023-07-13T04:34:58;95279.03;;;23.05
24278;BMP280;12394;42.692;23.314;2023-07-13T04:37:25;95289.53;;;23.24
24278;BMP280;12394;42.692;23.314;2023-07-13T04:39:51;95269.28;;;23.17
24278;BMP280;12394;42.692;23.314;2023-07-13T04:42:16;95294.34;;;23.34
24278;BMP280;12394;42.692;23.314;2023-07-13T04:44:41;95290.56;;;23.41
24278;BMP280;12394;42.692;23.314;2023-07-13T04:47:07;95289.94;;;23.46
24278;BMP280;12394;42.692;23.314;2023-07-13T04:49:32;95297.22;;;23.60
24278;BMP280;12394;42.692;23.314;2023-07-13T04:51:58;95307.25;;;23.65
24278;BMP280;12394;42.692;23.314;2023-07-13T04:54:23;95308.81;;;23.72
24278;BMP280;12394;42.692;23.314;2023-07-13T04:56:48;95309.19;;;23.79
24278;BMP280;12394;42.692;23.314;2023-07-13T04:59:14;95317.34;;;23.90
24278;BMP280;12394;42.692;23.314;2023-07-13T05:01:39;95313.66;;;24.03
24278;BMP280;12394;42.692;23.314;2023-07-13T05:04:06;95299.69;;;23.93
24278;BMP280;12394;42.692;23.314;2023-07-13T05:06:31;95317.13;;;24.09
24278;BMP280;12394;42.692;23.314;2023-07-13T05:08:57;95302.69;;;24.01
24278;BMP280;12394;42.692;23.314;2023-07-13T05:11:24;95318.69;;;24.15
24278;BMP280;12394;42.692;23.314;2023-07-13T05:13:49;95328.13;;;24.25
24278;BMP280;12394;42.692;23.314;2023-07-13T05:16:15;95311.59;;;24.27
24278;BMP280;12394;42.692;23.314;2023-07-13T05:18:40;95328.06;;;24.40
24278;BMP280;12394;42.692;23.314;2023-07-13T05:21:08;95314.34;;;24.32
24278;BMP280;12394;42.692;23.314;2023-07-13T05:23:35;95320.50;;;24.39
24278;BMP280;12394;42.692;23.314;2023-07-13T05:26:01;95308.25;;;24.32
24278;BMP280;12394;42.692;23.314;2023-07-13T05:28:27;95329.81;;;24.43
24278;BMP280;12394;42.692;23.314;2023-07-13T05:30:53;95327.94;;;24.49
24278;BMP280;12394;42.692;23.314;2023-07-13T05:33:20;95322.44;;;24.58
24278;BMP280;12394;42.692;23.314;2023-07-13T05:35:45;95329.47;;;24.76
24278;BMP280;12394;42.692;23.314;2023-07-13T05:38:11;95316.16;;;24.81
24278;BMP280;12394;42.692;23.314;2023-07-13T05:40:37;95328.03;;;24.95
24278;BMP280;12394;42.692;23.314;2023-07-13T05:43:02;95329.97;;;24.95
24278;BMP280;12394;42.692;23.314;2023-07-13T05:45:28;95325.28;;;25.10
24278;BMP280;12394;42.692;23.314;2023-07-13T05:47:53;95325.41;;;25.21
24278;BMP280;12394;42.692;23.314;2023-07-13T05:50:19;95326.91;;;25.28
24278;BMP280;12394;42.692;23.314;2023-07-13T05:52:44;95329.22;;;25.40
24278;BMP280;12394;42.692;23.314;2023-07-13T05:55:09;95327.63;;;25.48
24278;BMP280;12394;42.692;23.314;2023-07-13T05:57:35;95333.19;;;25.71
24278;BMP280;12394;42.692;23.314;2023-07-13T06:00:00;95313.19;;;25.72
24278;BMP280;12394;42.692;23.314;2023-07-13T06:02:25;95312.78;;;25.79
24278;BMP280;12394;42.692;23.314;2023-07-13T06:04:51;95310.25;;;26.01
24278;BMP280;12394;42.692;23.314;2023-07-13T06:07:17;95310.69;;;25.94
24278;BMP280;12394;42.692;23.314;2023-07-13T06:09:42;95316.19;;;26.10
24278;BMP280;12394;42.692;23.314;2023-07-13T06:12:08;95320.28;;;26.06
24278;BMP280;12394;42.692;23.314;2023-07-13T06:14:35;95329.63;;;26.16
24278;BMP280;12394;42.692;23.314;2023-07-13T06:17:01;95319.22;;;26.24
24278;BMP280;12394;42.692;23.314;2023-07-13T06:19:26;95301.91;;;26.30
24278;BMP280;12394;42.692;23.314;2023-07-13T06:21:51;95325.44;;;26.46
24278;BMP280;12394;42.692;23.314;2023-07-13T06:24:17;95311.03;;;26.49
24278;BMP280;12394;42.692;23.314;2023-07-13T06:26:42;95306.94;;;26.60
24278;BMP280;12394;42.692;23.314;2023-07-13T06:29:08;95330.94;;;26.74
24278;BMP280;12394;42.692;23.314;2023-07-13T06:31:33;95322.41;;;26.81
24278;BMP280;12394;42.692;23.314;2023-07-13T06:33:59;95316.66;;;27.05
24278;BMP280;12394;42.692;23.314;2023-07-13T06:36:24;95323.28;;;27.26
24278;BMP280;12394;42.692;23.314;2023-07-13T06:38:49;95322.06;;;27.22
24278;BMP280;12394;42.692;23.314;2023-07-13T06:41:15;95324.81;;;27.38
24278;BMP280;12394;42.692;23.314;2023-07-13T06:43:40;95320.16;;;27.39
24278;BMP280;12394;42.692;23.314;2023-07-13T06:46:06;95316.78;;;27.61
24278;BMP280;12394;42.692;23.314;2023-07-13T06:48:31;95317.75;;;27.69
24278;BMP280;12394;42.692;23.314;2023-07-13T06:50:57;95310.41;;;27.80
24278;BMP280;12394;42.692;23.314;2023-07-13T06:53:23;95299.41;;;27.90
24278;BMP280;12394;42.692;23.314;2023-07-13T06:55:49;95316.78;;;28.11
24278;BMP280;12394;42.692;23.314;2023-07-13T06:58:18;95309.66;;;28.30
24278;BMP280;12394;42.692;23.314;2023-07-13T07:00:44;95320.38;;;28.47
24278;BMP280;12394;42.692;23.314;2023-07-13T07:03:10;95329.69;;;28.51
24278;BMP280;12394;42.692;23.314;2023-07-13T07:05:36;95310.84;;;28.40
24278;BMP280;12394;42.692;23.314;2023-07-13T07:08:01;95316.91;;;28.63
24278;BMP280;12394;42.692;23.314;2023-07-13T07:10:29;95310.31;;;28.53
24278;BMP280;12394;42.692;23.314;2023-07-13T07:12:55;95315.94;;;28.66
24278;BMP280;12394;42.692;23.314;2023-07-13T07:15:20;95322.50;;;28.76
24278;BMP280;12394;42.692;23.314;2023-07-13T07:17:46;95316.38;;;28.81
24278;BMP280;12394;42.692;23.314;2023-07-13T07:20:12;95280.63;;;28.81
24278;BMP280;12394;42.692;23.314;2023-07-13T07:22:38;95306.69;;;29.08
24278;BMP280;12394;42.692;23.314;2023-07-13T07:25:04;95308.44;;;29.46
24278;BMP280;12394;42.692;23.314;2023-07-13T07:27:29;95297.34;;;29.55
24278;BMP280;12394;42.692;23.314;2023-07-13T07:29:54;95313.31;;;29.83
24278;BMP280;12394;42.692;23.314;2023-07-13T07:32:20;95309.34;;;30.20
24278;BMP280;12394;42.692;23.314;2023-07-13T07:34:46;95300.50;;;30.19
24278;BMP280;12394;42.692;23.314;2023-07-13T07:37:13;95298.72;;;30.52
24278;BMP280;12394;42.692;23.314;2023-07-13T07:39:38;95285.81;;;30.82
24278;BMP280;12394;42.692;23.314;2023-07-13T07:42:04;95296.81;;;31.08
24278;BMP280;12394;42.692;23.314;2023-07-13T07:44:33;95290.38;;;30.92
24278;BMP280;12394;42.692;23.314;2023-07-13T07:46:59;95281.81;;;31.26
24278;BMP280;12394;42.692;23.314;2023-07-13T07:49:24;95296.16;;;31.53
24278;BMP280;12394;42.692;23.314;2023-07-13T07:51:50;95290.03;;;31.52
24278;BMP280;12394;42.692;23.314;2023-07-13T07:54:16;95284.31;;;31.88
24278;BMP280;12394;42.692;23.314;2023-07-13T07:56:41;95274.47;;;32.16
24278;BMP280;12394;42.692;23.314;2023-07-13T07:59:07;95272.78;;;32.53
24278;BMP280;12394;42.692;23.314;2023-07-13T08:01:32;95271.53;;;32.80
24278;BMP280;12394;42.692;23.314;2023-07-13T08:03:58;95274.94;;;33.07
24278;BMP280;12394;42.692;23.314;2023-07-13T08:06:23;95269.75;;;33.50
24278;BMP280;12394;42.692;23.314;2023-07-13T08:08:49;95267.41;;;33.88
24278;BMP280;12394;42.692;23.314;2023-07-13T08:11:15;95257.00;;;34.28
24278;BMP280;12394;42.692;23.314;2023-07-13T08:13:41;95266.13;;;34.82
24278;BMP280;12394;42.692;23.314;2023-07-13T08:16:06;95261.34;;;35.11
24278;BMP280;12394;42.692;23.314;2023-07-13T08:18:32;95257.44;;;35.80
24278;BMP280;12394;42.692;23.314;2023-07-13T08:20:57;95245.78;;;36.33
24278;BMP280;12394;42.692;23.314;2023-07-13T08:23:24;95258.34;;;36.83
24278;BMP280;12394;42.692;23.314;2023-07-13T08:25:53;95252.66;;;37.29
24278;BMP280;12394;42.692;23.314;2023-07-13T08:28:20;95248.66;;;37.79
24278;BMP280;12394;42.692;23.314;2023-07-13T08:30:46;95243.69;;;38.45
24278;BMP280;12394;42.692;23.314;2023-07-13T08:33:18;95254.56;;;38.96
24278;BMP280;12394;42.692;23.314;2023-07-13T08:35:46;95247.81;;;39.61
24278;BMP280;12394;42.692;23.314;2023-07-13T08:38:12;95231.34;;;39.97
24278;BMP280;12394;42.692;23.314;2023-07-13T08:40:39;95232.31;;;39.82
24278;BMP280;12394;42.692;23.314;2023-07-13T08:43:04;95233.47;;;39.89
24278;BMP280;12394;42.692;23.314;2023-07-13T08:45:43;95229.19;;;40.53
24278;BMP280;12394;42.692;23.314;2023-07-13T08:48:31;95234.75;;;41.84
24278;BMP280;12394;42.692;23.314;2023-07-13T08:51:24;95239.91;;;42.42
24278;BMP280;12394;42.692;23.314;2023-07-13T08:53:55;95239.09;;;42.84
24278;BMP280;12394;42.692;23.314;2023-07-13T08:56:25;95234.03;;;41.84
24278;BMP280;12394;42.692;23.314;2023-07-13T08:58:56;95244.16;;;42.33
24278;BMP280;12394;42.692;23.314;2023-07-13T09:01:30;95245.44;;;43.42
24278;BMP280;12394;42.692;23.314;2023-07-13T09:04:03;95258.09;;;43.13
24278;BMP280;12394;42.692;23.314;2023-07-13T09:07:02;95230.19;;;43.30
24278;BMP280;12394;42.692;23.314;2023-07-13T09:15:19;95273.28;;;44.30
24278;BMP280;12394;42.692;23.314;2023-07-13T09:17:49;95258.44;;;44.86
24278;BMP280;12394;42.692;23.314;2023-07-13T09:22:47;95249.25;;;45.20
24278;BMP280;12394;42.692;23.314;2023-07-13T09:27:56;95259.44;;;46.25
24278;BMP280;12394;42.692;23.314;2023-07-13T09:30:51;95254.31;;;46.92
24278;BMP280;12394;42.692;23.314;2023-07-13T09:33:13;95256.88;;;47.64
24278;BMP280;12394;42.692;23.314;2023-07-13T09:35:39;95253.09;;;47.57
24278;BMP280;12394;42.692;23.314;2023-07-13T09:38:17;95251.31;;;47.64
24278;BMP280;12394;42.692;23.314;2023-07-13T09:43:13;95248.59;;;47.82
24278;BMP280;12394;42.692;23.314;2023-07-13T09:45:39;95242.84;;;47.93
24278;BMP280;12394;42.692;23.314;2023-07-13T09:48:12;95230.94;;;48.95
24278;BMP280;12394;42.692;23.314;2023-07-13T09:50:42;95236.91;;;48.87
24278;BMP280;12394;42.692;23.314;2023-07-13T09:53:18;95220.72;;;48.29
24278;BMP280;12394;42.692;23.314;2023-07-13T09:55:46;95215.47;;;48.19
24278;BMP280;12394;42.692;23.314;2023-07-13T09:58:18;95214.69;;;48.87
24278;BMP280;12394;42.692;23.314;2023-07-13T10:01:00;95210.91;;;49.75
24278;BMP280;12394;42.692;23.314;2023-07-13T10:03:33;95195.34;;;49.88
24278;BMP280;12394;42.692;23.314;2023-07-13T10:06:14;95196.75;;;49.89
24278;BMP280;12394;42.692;23.314;2023-07-13T10:08:40;95188.69;;;49.97
24278;BMP280;12394;42.692;23.314;2023-07-13T10:11:19;95170.81;;;49.63
24278;BMP280;12394;42.692;23.314;2023-07-13T10:13:51;95197.53;;;48.75
24278;BMP280;12394;42.692;23.314;2023-07-13T10:16:19;95190.94;;;48.67
24278;BMP280;12394;42.692;23.314;2023-07-13T10:18:50;95187.16;;;48.23
24278;BMP280;12394;42.692;23.314;2023-07-13T10:21:19;95191.78;;;49.07
24278;BMP280;12394;42.692;23.314;2023-07-13T10:23:57;95208.88;;;48.81
24278;BMP280;12394;42.692;23.314;2023-07-13T10:26:33;95191.34;;;48.24
24278;BMP280;12394;42.692;23.314;2023-07-13T10:29:04;95174.16;;;48.45
24278;BMP280;12394;42.692;23.314;2023-07-13T10:31:32;95180.47;;;47.61
24278;BMP280;12394;42.692;23.314;2023-07-13T10:33:59;95174.97;;;47.96
24278;BMP280;12394;42.692;23.314;2023-07-13T10:36:32;95178.28;;;47.59
24278;BMP280;12394;42.692;23.314;2023-07-13T10:39:02;95169.81;;;47.89
24278;BMP280;12394;42.692;23.314;2023-07-13T10:41:29;95157.41;;;46.78
24278;BMP280;12394;42.692;23.314;2023-07-13T10:43:56;95170.06;;;45.66
24278;BMP280;12394;42.692;23.314;2023-07-13T10:46:24;95151.88;;;44.55
24278;BMP280;12394;42.692;23.314;2023-07-13T10:48:55;95159.03;;;42.47
24278;BMP280;12394;42.692;23.314;2023-07-13T10:51:22;95141.75;;;41.59
24278;BMP280;12394;42.692;23.314;2023-07-13T10:54:21;95142.28;;;41.15
24278;BMP280;12394;42.692;23.314;2023-07-13T10:56:53;95138.88;;;40.86
24278;BMP280;12394;42.692;23.314;2023-07-13T10:59:33;95132.66;;;40.26
24278;BMP280;12394;42.692;23.314;2023-07-13T11:02:11;95118.22;;;40.06
24278;BMP280;12394;42.692;23.314;2023-07-13T11:04:43;95123.22;;;39.71
24278;BMP280;12394;42.692;23.314;2023-07-13T11:07:19;95119.47;;;39.47
24278;BMP280;12394;42.692;23.314;2023-07-13T11:09:50;95119.38;;;39.19
24278;BMP280;12394;42.692;23.314;2023-07-13T11:22:52;95100.97;;;37.95
24278;BMP280;12394;42.692;23.314;2023-07-13T11:27:46;95110.84;;;37.90
24278;BMP280;12394;42.692;23.314;2023-07-13T11:30:30;95108.69;;;37.89
24278;BMP280;12394;42.692;23.314;2023-07-13T11:36:05;95110.31;;;37.74
24278;BMP280;12394;42.692;23.314;2023-07-13T11:38:38;95105.78;;;37.52
24278;BMP280;12394;42.692;23.314;2023-07-13T11:41:26;95094.97;;;37.37
24278;BMP280;12394;42.692;23.314;2023-07-13T11:43:55;95104.50;;;37.04
24278;BMP280;12394;42.692;23.314;2023-07-13T11:46:26;95081.69;;;36.91
24278;BMP280;12394;42.692;23.314;2023-07-13T11:48:53;95092.00;;;37.01
24278;BMP280;12394;42.692;23.314;2023-07-13T11:51:24;95094.84;;;36.85
24278;BMP280;12394;42.692;23.314;2023-07-13T11:53:53;95081.97;;;36.78
24278;BMP280;12394;42.692;23.314;2023-07-13T11:56:19;95066.06;;;36.67
24278;BMP280;12394;42.692;23.314;2023-07-13T11:58:48;95064.63;;;36.59
24278;BMP280;12394;42.692;23.314;2023-07-13T12:01:21;95069.50;;;36.68
24278;BMP280;12394;42.692;23.314;2023-07-13T12:03:48;95073.34;;;36.65
24278;BMP280;12394;42.692;23.314;2023-07-13T12:06:29;95073.63;;;36.76
24278;BMP280;12394;42.692;23.314;2023-07-13T12:09:03;95034.03;;;36.43
24278;BMP280;12394;42.692;23.314;2023-07-13T12:11:38;95065.63;;;36.78
24278;BMP280;12394;42.692;23.314;2023-07-13T12:14:05;95064.72;;;36.76
24278;BMP280;12394;42.692;23.314;2023-07-13T12:16:32;95065.75;;;36.55
24278;BMP280;12394;42.692;23.314;2023-07-13T12:19:00;95059.38;;;36.53
24278;BMP280;12394;42.692;23.314;2023-07-13T12:21:34;95041.03;;;36.53
24278;BMP280;12394;42.692;23.314;2023-07-13T12:24:00;95048.19;;;36.74
24278;BMP280;12394;42.692;23.314;2023-07-13T12:26:28;95045.88;;;36.70
24278;BMP280;12394;42.692;23.314;2023-07-13T12:28:55;95040.31;;;36.61
24278;BMP280;12394;42.692;23.314;2023-07-13T12:31:37;95040.78;;;36.67
24278;BMP280;12394;42.692;23.314;2023-07-13T12:34:11;95022.84;;;36.56
24278;BMP280;12394;42.692;23.314;2023-07-13T12:36:40;95030.13;;;36.61
24278;BMP280;12394;42.692;23.314;2023-07-13T12:39:14;95028.09;;;36.62
24278;BMP280;12394;42.692;23.314;2023-07-13T12:41:40;95029.00;;;36.64
24278;BMP280;12394;42.692;23.314;2023-07-13T12:44:11;95024.19;;;36.72
24278;BMP280;12394;42.692;23.314;2023-07-13T12:46:37;95006.56;;;36.73
24278;BMP280;12394;42.692;23.314;2023-07-13T12:49:06;95003.03;;;36.80
24278;BMP280;12394;42.692;23.314;2023-07-13T12:51:32;95019.50;;;36.90
24278;BMP280;12394;42.692;23.314;2023-07-13T12:54:15;95014.63;;;36.88
24278;BMP280;12394;42.692;23.314;2023-07-13T12:56:42;95006.59;;;36.90
24278;BMP280;12394;42.692;23.314;2023-07-13T12:59:16;95001.94;;;36.83
24278;BMP280;12394;42.692;23.314;2023-07-13T13:01:42;95003.13;;;36.90
24278;BMP280;12394;42.692;23.314;2023-07-13T13:04:09;95012.44;;;36.87
24278;BMP280;12394;42.692;23.314;2023-07-13T13:06:36;95003.75;;;36.81
24278;BMP280;12394;42.692;23.314;2023-07-13T13:09:03;95001.00;;;36.88
24278;BMP280;12394;42.692;23.314;2023-07-13T13:11:30;94983.00;;;36.85
24278;BMP280;12394;42.692;23.314;2023-07-13T13:13:56;94996.41;;;36.91
24278;BMP280;12394;42.692;23.314;2023-07-13T13:18:55;94986.63;;;36.88
24278;BMP280;12394;42.692;23.314;2023-07-13T13:21:23;94973.63;;;36.79
24278;BMP280;12394;42.692;23.314;2023-07-13T13:23:49;94981.16;;;36.88
24278;BMP280;12394;42.692;23.314;2023-07-13T13:26:16;94982.28;;;36.85
24278;BMP280;12394;42.692;23.314;2023-07-13T13:28:45;94990.63;;;36.87
24278;BMP280;12394;42.692;23.314;2023-07-13T13:31:13;94982.16;;;36.75
24278;BMP280;12394;42.692;23.314;2023-07-13T13:33:43;94978.50;;;36.80
24278;BMP280;12394;42.692;23.314;2023-07-13T13:36:17;94966.94;;;36.72
24278;BMP280;12394;42.692;23.314;2023-07-13T13:38:43;94978.06;;;36.67
24278;BMP280;12394;42.692;23.314;2023-07-13T13:41:13;94976.84;;;36.60
24278;BMP280;12394;42.692;23.314;2023-07-13T13:43:40;94971.56;;;36.62
24278;BMP280;12394;42.692;23.314;2023-07-13T13:46:14;94970.31;;;36.80
24278;BMP280;12394;42.692;23.314;2023-07-13T13:48:40;94971.44;;;36.77
24278;BMP280;12394;42.692;23.314;2023-07-13T13:51:14;94966.38;;;36.74
24278;BMP280;12394;42.692;23.314;2023-07-13T13:53:40;94965.88;;;36.68
24278;BMP280;12394;42.692;23.314;2023-07-13T13:56:05;94960.28;;;36.58
24278;BMP280;12394;42.692;23.314;2023-07-13T13:58:31;94964.69;;;36.53
24278;BMP280;12394;42.692;23.314;2023-07-13T14:00:56;94975.19;;;36.65
24278;BMP280;12394;42.692;23.314;2023-07-13T14:03:23;94964.09;;;36.63
24278;BMP280;12394;42.692;23.314;2023-07-13T14:05:49;94956.69;;;36.55
24278;BMP280;12394;42.692;23.314;2023-07-13T14:08:17;94957.31;;;36.71
24278;BMP280;12394;42.692;23.314;2023-07-13T14:10:44;94968.16;;;36.54
24278;BMP280;12394;42.692;23.314;2023-07-13T14:13:35;94966.94;;;36.47
24278;BMP280;12394;42.692;23.314;2023-07-13T14:16:02;94973.09;;;36.48
24278;BMP280;12394;42.692;23.314;2023-07-13T14:18:27;94972.00;;;36.51
24278;BMP280;12394;42.692;23.314;2023-07-13T14:20:53;94959.63;;;36.50
24278;BMP280;12394;42.692;23.314;2023-07-13T14:23:18;94962.09;;;36.38
24278;BMP280;12394;42.692;23.314;2023-07-13T14:25:47;94956.06;;;36.40
24278;BMP280;12394;42.692;23.314;2023-07-13T14:28:26;94949.28;;;36.48
24278;BMP280;12394;42.692;23.314;2023-07-13T14:30:53;94958.50;;;36.61
24278;BMP280;12394;42.692;23.314;2023-07-13T14:33:20;94952.19;;;36.50
24278;BMP280;12394;42.692;23.314;2023-07-13T14:35:45;94951.97;;;36.56